createdAt,value
2022-09-20T00:01:28.365Z,8.79
2022-09-20T00:04:31.629Z,8.69
2022-09-20T00:07:35.831Z,8.67
2022-09-20T00:10:39.478Z,8.70
2022-09-20T00:13:44.821Z,8.63
2022-09-20T00:16:47.676Z,8.68
2022-09-20T00:19:50.566Z,8.66
2022-09-20T00:22:54.761Z,8.62
2022-09-20T00:25:58.975Z,8.61
2022-09-20T00:29:02.121Z,8.59
2022-09-20T00:32:05.468Z,8.57
2022-09-20T00:35:10.871Z,8.58
2022-09-20T00:38:16.030Z,8.57
2022-09-20T00:41:18.884Z,8.63
2022-09-20T00:44:46.006Z,8.60
2022-09-20T00:47:51.886Z,8.54
2022-09-20T00:51:00.759Z,8.55
2022-09-20T00:54:06.930Z,8.57
2022-09-20T00:57:09.948Z,8.55
2022-09-20T01:00:14.362Z,8.51
2022-09-20T01:03:23.087Z,8.46
2022-09-20T01:06:26.107Z,8.43
2022-09-20T01:09:30.456Z,8.46
2022-09-20T01:12:36.557Z,8.48
2022-09-20T01:15:41.629Z,8.44
2022-09-20T01:18:47.144Z,8.44
2022-09-20T01:21:50.171Z,8.39
2022-09-20T01:25:00.910Z,8.35
2022-09-20T01:28:05.461Z,8.31
2022-09-20T01:31:11.659Z,8.32
2022-09-20T01:34:17.379Z,8.32
2022-09-20T01:37:27.000Z,8.30
2022-09-20T01:40:37.578Z,8.33
2022-09-20T01:43:49.708Z,8.26
2022-09-20T01:47:01.510Z,8.32
2022-09-20T01:50:13.218Z,8.29
2022-09-20T01:53:46.129Z,8.32
2022-09-20T01:57:30.788Z,8.36
2022-09-20T02:00:47.865Z,8.30
2022-09-20T02:04:24.487Z,8.30
2022-09-20T02:07:54.448Z,8.28
2022-09-20T02:11:17.429Z,8.29
2022-09-20T02:14:33.360Z,8.27
2022-09-20T02:17:49.591Z,8.26
2022-09-20T02:20:57.998Z,8.23
2022-09-20T02:24:12.332Z,8.23
2022-09-20T02:27:24.740Z,8.31
2022-09-20T02:30:43.344Z,8.23
2022-09-20T02:34:16.559Z,8.27
2022-09-20T02:37:50.930Z,8.27
2022-09-20T02:41:13.022Z,8.26
2022-09-20T02:44:23.735Z,8.16
2022-09-20T02:47:34.399Z,8.25
2022-09-20T02:50:46.699Z,8.26
2022-09-20T02:53:57.097Z,8.26
2022-09-20T02:57:05.392Z,8.23
2022-09-20T03:00:14.190Z,8.29
2022-09-20T03:03:25.001Z,8.29
2022-09-20T03:06:41.661Z,8.25
2022-09-20T03:09:50.153Z,8.15
2022-09-20T03:13:09.057Z,8.17
2022-09-20T03:16:23.904Z,8.17
2022-09-20T03:19:39.796Z,8.15
2022-09-20T03:22:55.815Z,8.17
2022-09-20T03:26:11.617Z,8.16
2022-09-20T03:29:28.211Z,8.14
2022-09-20T03:32:45.564Z,8.14
2022-09-20T03:36:08.720Z,8.12
2022-09-20T03:39:41.497Z,8.09
2022-09-20T03:42:49.726Z,8.07
2022-09-20T03:46:11.474Z,8.05
2022-09-20T03:49:52.784Z,8.07
2022-09-20T03:53:19.826Z,8.02
2022-09-20T03:57:04.203Z,8.05
2022-09-20T04:00:23.563Z,7.95
2022-09-20T04:03:37.424Z,7.99
2022-09-20T04:07:01.798Z,7.92
2022-09-20T04:10:17.672Z,7.94
2022-09-20T04:13:32.011Z,7.93
2022-09-20T04:16:44.259Z,7.97
2022-09-20T04:19:53.137Z,7.98
2022-09-20T04:22:59.296Z,7.91
2022-09-20T04:26:04.345Z,7.95
2022-09-20T04:29:20.996Z,7.99
2022-09-20T04:32:31.857Z,7.99
2022-09-20T04:36:02.285Z,8.02
2022-09-20T04:39:16.830Z,8.04
2022-09-20T04:42:55.852Z,8.01
2022-09-20T04:46:19.962Z,8.00
2022-09-20T04:49:52.070Z,7.99
2022-09-20T04:53:17.328Z,8.05
2022-09-20T04:56:38.213Z,8.07
2022-09-20T04:59:56.522Z,8.09
2022-09-20T05:03:37.140Z,7.99
2022-09-20T05:07:11.858Z,8.02
2022-09-20T05:11:02.530Z,8.07
2022-09-20T05:14:24.880Z,8.05
2022-09-20T05:17:39.442Z,8.01
2022-09-20T05:21:08.840Z,8.05
2022-09-20T05:24:43.381Z,7.96
2022-09-20T05:27:53.715Z,7.95
2022-09-20T05:31:01.001Z,7.89
2022-09-20T05:34:16.514Z,7.94
2022-09-20T05:37:33.264Z,7.99
2022-09-20T05:40:55.609Z,8.00
2022-09-20T05:44:09.526Z,8.02
2022-09-20T05:47:20.378Z,8.07
2022-09-20T05:50:40.369Z,8.04
2022-09-20T05:54:09.935Z,8.12
2022-09-20T05:57:29.157Z,8.08
2022-09-20T06:00:38.599Z,8.04
2022-09-20T06:03:45.592Z,8.05
2022-09-20T06:06:58.672Z,8.16
2022-09-20T06:10:31.137Z,8.10
2022-09-20T06:13:46.397Z,8.07
2022-09-20T06:16:58.884Z,8.12
2022-09-20T06:20:14.455Z,8.07
2022-09-20T06:23:18.387Z,8.08
2022-09-20T06:26:25.114Z,8.15
2022-09-20T06:29:33.262Z,8.15
2022-09-20T06:32:36.186Z,8.15
2022-09-20T06:35:44.639Z,8.14
2022-09-20T06:39:17.078Z,8.14
2022-09-20T06:42:22.431Z,8.14
2022-09-20T06:45:29.168Z,8.12
2022-09-20T06:48:32.218Z,8.17
2022-09-20T06:51:37.555Z,8.17
2022-09-20T06:54:43.567Z,8.24
2022-09-20T06:57:46.991Z,8.28
2022-09-20T07:00:51.283Z,8.32
2022-09-20T07:03:54.171Z,8.32
2022-09-20T07:07:01.181Z,8.40
2022-09-20T07:10:04.205Z,8.44
2022-09-20T07:13:07.001Z,8.53
2022-09-20T07:16:13.689Z,8.48
2022-09-20T07:19:16.669Z,8.55
2022-09-20T07:22:19.641Z,8.50
2022-09-20T07:25:22.885Z,8.58
2022-09-20T07:28:26.199Z,8.88
2022-09-20T07:31:31.138Z,8.89
2022-09-20T07:34:34.010Z,8.92
2022-09-20T07:37:37.401Z,8.81
2022-09-20T07:40:40.284Z,8.83
2022-09-20T07:43:43.088Z,8.86
2022-09-20T07:46:49.009Z,9.07
2022-09-20T07:49:53.065Z,9.07
2022-09-20T07:52:58.003Z,9.13
2022-09-20T07:56:01.864Z,9.06
2022-09-20T07:59:04.810Z,8.94
2022-09-20T08:02:14.941Z,8.90
2022-09-20T08:05:17.972Z,8.91
2022-09-20T08:08:21.013Z,8.95
2022-09-20T08:11:28.784Z,8.93
2022-09-20T08:14:31.799Z,8.99
2022-09-20T08:17:35.944Z,9.13
2022-09-20T08:20:39.418Z,9.19
2022-09-20T08:23:43.916Z,9.30
2022-09-20T08:26:46.687Z,9.28
2022-09-20T08:29:50.085Z,9.35
2022-09-20T08:32:55.823Z,9.45
2022-09-20T08:35:59.098Z,9.59
2022-09-20T08:42:33.615Z,9.40
2022-09-20T08:45:39.303Z,9.37
2022-09-20T08:48:44.335Z,9.39
2022-09-20T08:51:50.611Z,9.43
2022-09-20T08:54:53.568Z,9.42
2022-09-20T08:57:58.414Z,9.44
2022-09-20T09:01:01.562Z,9.69
2022-09-20T09:04:14.128Z,9.82
2022-09-20T09:07:19.808Z,9.74
2022-09-20T09:10:23.213Z,9.76
2022-09-20T09:13:30.133Z,9.65
2022-09-20T09:16:36.433Z,9.65
2022-09-20T09:19:49.793Z,9.73
2022-09-20T09:23:01.017Z,9.80
2022-09-20T09:26:06.451Z,9.84
2022-09-20T09:29:15.262Z,9.84
2022-09-20T09:32:24.727Z,9.73
2022-09-20T09:35:31.753Z,9.77
2022-09-20T09:38:36.654Z,9.84
2022-09-20T09:41:39.554Z,9.99
2022-09-20T09:44:42.480Z,9.88
2022-09-20T09:47:46.660Z,9.93
2022-09-20T09:50:51.011Z,9.91
2022-09-20T09:53:55.177Z,9.99
2022-09-20T09:57:24.511Z,10.02
2022-09-20T10:00:28.922Z,9.96
2022-09-20T10:03:41.701Z,9.95
2022-09-20T10:06:54.580Z,10.03
2022-09-20T10:10:07.727Z,10.13
2022-09-20T10:13:20.094Z,10.24
2022-09-20T10:16:32.221Z,10.16
2022-09-20T10:19:51.337Z,9.94
2022-09-20T10:26:45.130Z,9.64
2022-09-20T10:30:01.836Z,9.61
2022-09-20T10:33:16.119Z,9.66
2022-09-20T10:36:28.871Z,9.82
2022-09-20T10:39:36.328Z,9.95
2022-09-20T10:43:04.792Z,9.99
2022-09-20T10:46:31.724Z,10.12
2022-09-20T10:49:43.652Z,10.19
2022-09-20T10:53:04.638Z,10.50
2022-09-20T10:56:26.480Z,10.58
2022-09-20T10:59:40.610Z,10.31
2022-09-20T11:02:54.465Z,10.33
2022-09-20T11:06:11.017Z,10.27
2022-09-20T11:09:19.441Z,10.35
2022-09-20T11:12:30.079Z,10.46
2022-09-20T11:15:41.719Z,10.56
2022-09-20T11:18:50.876Z,10.50
2022-09-20T11:21:59.844Z,10.55
2022-09-20T11:25:16.746Z,10.55
2022-09-20T11:28:30.527Z,10.52
2022-09-20T11:31:40.252Z,10.40
2022-09-20T11:34:53.587Z,10.48
2022-09-20T11:38:07.790Z,10.69
2022-09-20T11:41:15.456Z,10.83
2022-09-20T11:44:21.056Z,11.13
2022-09-20T11:47:50.314Z,11.37
2022-09-20T11:51:35.624Z,11.35
2022-09-20T11:55:08.512Z,11.43
2022-09-20T11:58:15.989Z,11.31
2022-09-20T12:01:28.743Z,11.14
2022-09-20T12:04:35.774Z,11.05
2022-09-20T12:07:41.571Z,11.06
2022-09-20T12:10:54.305Z,11.21
2022-09-20T12:14:04.008Z,11.48
2022-09-20T12:17:49.148Z,11.71
2022-09-20T12:21:15.600Z,11.97
2022-09-20T12:24:23.509Z,11.62
2022-09-20T12:27:57.873Z,11.45
2022-09-20T12:31:34.248Z,11.19
2022-09-20T12:34:39.403Z,11.11
2022-09-20T12:37:42.331Z,11.00
2022-09-20T12:41:00.011Z,10.85
2022-09-20T12:44:26.926Z,10.92
2022-09-20T12:47:33.538Z,11.08
2022-09-20T12:50:55.346Z,11.10
2022-09-20T12:54:07.811Z,11.11
2022-09-20T12:57:19.197Z,11.09
2022-09-20T13:00:33.618Z,11.17
2022-09-20T13:03:37.929Z,11.23
2022-09-20T13:06:42.492Z,11.32
2022-09-20T13:09:45.746Z,11.26
2022-09-20T13:12:54.438Z,11.42
2022-09-20T13:15:59.271Z,11.64
2022-09-20T13:19:05.633Z,11.87
2022-09-20T13:22:13.195Z,11.81
2022-09-20T13:25:20.440Z,11.71
2022-09-20T13:28:32.576Z,11.63
2022-09-20T13:31:35.939Z,11.60
2022-09-20T13:34:38.801Z,11.62
2022-09-20T13:37:51.167Z,11.55
2022-09-20T13:41:02.367Z,11.64
2022-09-20T13:44:05.404Z,11.80
2022-09-20T13:47:25.668Z,11.86
2022-09-20T13:50:31.852Z,11.95
2022-09-20T13:53:43.255Z,12.05
2022-09-20T13:56:46.466Z,12.04
2022-09-20T13:59:50.266Z,12.03
2022-09-20T14:02:54.717Z,12.05
2022-09-20T14:06:00.920Z,12.09
2022-09-20T14:09:11.028Z,12.35
2022-09-20T14:12:15.360Z,12.25
2022-09-20T14:15:18.310Z,12.26
2022-09-20T14:18:23.389Z,12.23
2022-09-20T14:21:28.332Z,12.15
2022-09-20T14:24:35.638Z,12.17
2022-09-20T14:27:38.907Z,12.22
2022-09-20T14:30:41.700Z,12.26
2022-09-20T14:33:51.730Z,12.21
2022-09-20T14:37:06.452Z,12.25
2022-09-20T14:40:22.602Z,12.15
2022-09-20T14:43:31.466Z,12.18
2022-09-20T14:46:36.732Z,12.42
2022-09-20T14:49:43.951Z,12.31
2022-09-20T14:52:46.711Z,12.21
2022-09-20T14:56:08.790Z,12.11
2022-09-20T14:59:24.688Z,12.07
2022-09-20T15:02:28.094Z,12.00
2022-09-20T15:05:31.079Z,11.98
2022-09-20T15:08:36.707Z,11.97
2022-09-20T15:11:41.770Z,11.91
2022-09-20T15:14:44.679Z,11.84
2022-09-20T15:17:48.849Z,11.84
2022-09-20T15:20:52.263Z,11.84
2022-09-20T15:23:55.306Z,11.76
2022-09-20T15:26:59.442Z,11.66
2022-09-20T15:30:02.278Z,11.57
2022-09-20T15:33:05.058Z,11.52
2022-09-20T15:36:08.952Z,11.50
2022-09-20T15:39:12.290Z,11.45
2022-09-20T15:42:16.762Z,11.43
2022-09-20T15:45:21.209Z,11.36
2022-09-20T15:48:26.629Z,11.36
2022-09-20T15:51:30.724Z,11.26
2022-09-20T15:54:33.504Z,11.24
2022-09-20T15:57:38.739Z,11.12
2022-09-20T16:00:42.393Z,11.07
2022-09-20T16:03:47.364Z,11.10
2022-09-20T16:06:51.309Z,10.97
2022-09-20T16:09:54.875Z,10.92
2022-09-20T16:12:59.059Z,10.87
2022-09-20T16:16:02.891Z,10.81
2022-09-20T16:19:21.302Z,10.77
2022-09-20T16:22:24.319Z,10.69
2022-09-20T16:25:27.243Z,10.64
2022-09-20T16:28:31.572Z,10.57
2022-09-20T16:31:39.852Z,10.43
2022-09-20T16:34:42.802Z,10.48
2022-09-20T16:37:45.767Z,10.45
2022-09-20T16:40:51.523Z,10.32
2022-09-20T16:43:56.520Z,10.34
2022-09-20T16:46:59.532Z,10.29
2022-09-20T16:50:02.738Z,10.22
2022-09-20T16:53:05.615Z,10.26
2022-09-20T16:56:08.368Z,10.29
2022-09-20T16:59:14.071Z,10.21
2022-09-20T17:02:17.273Z,10.30
2022-09-20T17:05:20.028Z,10.26
2022-09-20T17:08:22.952Z,10.26
2022-09-20T17:11:27.688Z,10.27
2022-09-20T17:14:32.129Z,10.39
2022-09-20T17:17:35.207Z,10.48
2022-09-20T17:20:38.546Z,10.51
2022-09-20T17:23:42.137Z,10.14
2022-09-20T17:26:46.534Z,10.26
2022-09-20T17:29:50.869Z,10.19
2022-09-20T17:32:53.912Z,10.29
2022-09-20T17:35:58.917Z,10.28
2022-09-20T17:39:04.599Z,10.22
2022-09-20T17:42:08.184Z,10.18
2022-09-20T17:45:12.781Z,10.15
2022-09-20T17:48:16.238Z,9.99
2022-09-20T17:51:20.709Z,10.10
2022-09-20T17:54:24.771Z,10.11
2022-09-20T17:57:27.675Z,10.12
2022-09-20T18:00:31.936Z,9.97
2022-09-20T18:03:38.828Z,9.94
2022-09-20T18:06:45.405Z,9.96
2022-09-20T18:09:48.075Z,9.93
2022-09-20T18:12:51.122Z,9.77
2022-09-20T18:15:55.611Z,9.73
2022-09-20T18:18:59.863Z,9.80
2022-09-20T18:22:03.365Z,9.72
2022-09-20T18:25:06.892Z,9.71
2022-09-20T18:28:09.682Z,9.78
2022-09-20T18:31:14.020Z,9.82
2022-09-20T18:34:19.110Z,9.74
2022-09-20T18:37:22.054Z,9.87
2022-09-20T18:40:25.022Z,9.91
2022-09-20T18:43:30.053Z,9.83
2022-09-20T18:46:37.793Z,9.75
2022-09-20T18:49:40.843Z,9.83
2022-09-20T18:52:43.704Z,9.68
2022-09-20T18:55:47.212Z,9.77
2022-09-20T18:58:51.042Z,9.66
2022-09-20T19:02:13.618Z,9.69
2022-09-20T19:05:28.260Z,9.69
2022-09-20T19:08:37.148Z,9.52
2022-09-20T19:11:44.867Z,9.54
2022-09-20T19:15:04.408Z,9.11
2022-09-20T19:18:23.591Z,9.11
2022-09-20T19:21:32.432Z,9.07
2022-09-20T19:24:51.072Z,9.16
2022-09-20T19:27:54.168Z,8.93
2022-09-20T19:30:58.306Z,8.57
2022-09-20T19:34:08.204Z,8.73
2022-09-20T19:37:21.686Z,8.26
2022-09-20T19:40:32.947Z,8.60
2022-09-20T19:43:56.896Z,8.61
2022-09-20T19:47:14.926Z,8.40
2022-09-20T19:50:29.569Z,8.49
2022-09-20T19:53:33.204Z,8.34
2022-09-20T19:56:47.328Z,8.10
2022-09-20T19:59:51.618Z,8.25
2022-09-20T20:02:55.274Z,8.15
2022-09-20T20:06:08.125Z,8.34
2022-09-20T20:09:19.907Z,7.95
2022-09-20T20:12:31.388Z,7.87
2022-09-20T20:15:41.699Z,8.06
2022-09-20T20:19:07.067Z,8.28
2022-09-20T20:22:28.497Z,8.36
2022-09-20T20:25:42.347Z,8.35
2022-09-20T20:28:45.046Z,7.93
2022-09-20T20:31:47.803Z,7.98
2022-09-20T20:34:50.827Z,7.89
2022-09-20T20:37:55.064Z,7.83
2022-09-20T20:41:04.737Z,7.98
2022-09-20T20:44:07.789Z,8.08
2022-09-20T20:47:11.330Z,7.91
2022-09-20T20:50:14.571Z,7.87
2022-09-20T20:53:18.766Z,7.79
2022-09-20T20:56:23.467Z,7.74
2022-09-20T20:59:26.198Z,7.69
2022-09-20T21:02:29.230Z,7.85
2022-09-20T21:05:32.330Z,7.93
2022-09-20T21:08:49.250Z,7.99
2022-09-20T21:11:52.925Z,7.89
2022-09-20T21:14:58.510Z,7.93
2022-09-20T21:18:11.588Z,7.83
2022-09-20T21:21:23.036Z,7.69
2022-09-20T21:24:29.688Z,7.73
2022-09-20T21:27:37.243Z,7.81
2022-09-20T21:30:42.727Z,7.59
2022-09-20T21:33:50.200Z,7.51
2022-09-20T21:37:02.716Z,7.26
2022-09-20T21:40:11.571Z,7.27
2022-09-20T21:43:24.141Z,7.15
2022-09-20T21:46:31.213Z,7.09
2022-09-20T21:49:38.364Z,6.84
2022-09-20T21:52:49.256Z,6.80
2022-09-20T21:56:01.909Z,6.92
2022-09-20T21:59:08.202Z,6.99
2022-09-20T22:02:15.782Z,6.81
2022-09-20T22:05:26.747Z,6.71
2022-09-20T22:08:31.346Z,6.73
2022-09-20T22:11:42.395Z,6.70
2022-09-20T22:14:49.597Z,6.50
2022-09-20T22:17:54.853Z,6.40
2022-09-20T22:21:06.609Z,6.28
2022-09-20T22:24:13.212Z,6.26
2022-09-20T22:27:23.252Z,6.29
2022-09-20T22:30:29.862Z,6.32
2022-09-20T22:33:37.903Z,6.52
2022-09-20T22:36:44.655Z,6.40
2022-09-20T22:39:48.534Z,6.29
2022-09-20T22:42:54.583Z,6.47
2022-09-20T22:46:03.722Z,6.28
2022-09-20T22:49:07.543Z,5.93
2022-09-20T22:52:13.104Z,5.97
2022-09-20T22:55:26.616Z,6.01
2022-09-20T22:58:32.933Z,5.86
2022-09-20T23:01:37.974Z,5.93
2022-09-20T23:04:42.506Z,6.00
2022-09-20T23:07:52.454Z,6.19
2022-09-20T23:11:07.889Z,6.22
2022-09-20T23:14:18.887Z,6.15
2022-09-20T23:17:30.123Z,6.08
2022-09-20T23:20:36.231Z,6.08
2022-09-20T23:23:43.345Z,6.12
2022-09-20T23:26:47.058Z,6.02
2022-09-20T23:29:51.685Z,6.18
2022-09-20T23:32:56.498Z,6.28
2022-09-20T23:36:00.555Z,6.37
2022-09-20T23:39:06.163Z,6.42
2022-09-20T23:42:10.587Z,6.41
2022-09-20T23:45:16.538Z,6.34
2022-09-20T23:48:21.494Z,6.41
2022-09-20T23:51:26.562Z,6.42
2022-09-20T23:54:33.477Z,6.41
2022-09-20T23:57:38.619Z,6.44
